WBSB/BWN METAR and TAF weather

Enter ICAO airport designator
Station Type Date Time Source
WBSB METAR 2021/08/01 17:30 UTC NOAA

WBSB 011730Z 12004KT 8000 -TSRA FEW004 FEW015CB BKN140 24/24 Q1010 NOSIG


Station Type Date Time Source
WBSB Decoded METAR 2021/08/01 17:30 UTC NOAA

Brunei Airport, Brunei (WBSB) 04-56N 114-56E 15M
Aug 01, 2021 - 01:30 PM EDT / 2021.08.01 1730 UTC
Wind: from the ESE (120 degrees) at 5 MPH (4 KT):0
Visibility: 4 mile(s):0
Sky conditions: mostly cloudy
Weather: light rain with thunder; Cumulonimbus clouds observed
Temperature: 75 F (24 C)
Dew Point: 75 F (24 C)
Relative Humidity: 100%
Pressure (altimeter): 29.83 in. Hg (1010 hPa)
ob: WBSB 011730Z 12004KT 8000 -TSRA FEW004 FEW015CB BKN140 24/24 Q1010 NOSIG
cycle: 17

Station Type Date Time Source
WBSB TAF 2021/08/01 18:18 UTC NOAA

TAF WBSB 011650Z 0118/0300 20004KT 9999 FEW014 FEW015CB
TEMPO 0118/0122 6000 -TSRA SCT014 FEW015CB
BECMG 0202/0204 24012KT FEW016 FEW017CB

Example: see airport list